Aérodrome :
LOGIN :

S'inscrire | Disclaimer

   EN    FR    IT 

 










Légende :    VFR   VFR Marginal   IFR   IFR Intensif   IFR Très Intensif
Visi : 
Plafond : 
>= 8 km
>= 3000ft
5 à 8 km
1000 à 3000 ft
1500m à 5 km
500 à 1000 ft
800 à 1500m
200 à 500 ft
< 800m
< 200 ft
Symboles :   Orages  Brouillard  Fortes neiges  Fortes précipitations  Vent > 20 kt
SIGMETs :   Divers  Orages  Givrage  Turbulence  Onde Orograph.  Cendres Volcan.







- Altitude de l'aérodrome : 235 ft
- Code IATA : BZG


EPBY - Bydgoszcz

DERNIER METAR :
  • 221430Z 15004KT 120V190 1700 BR BKN003 OVC005 M05/M06 Q1014

METARs EXPIRÉS :
  • 221400Z 12006KT 100V170 1700 BR OVC004 M05/M06 Q1014
  • 221330Z 18006KT 140V200 1900 BR OVC003 M04/M05 Q1014
  • 221300Z 16005KT 130V190 1600 BR OVC004 M05/M05 Q1014
  • 221230Z 18006KT 130V220 1800 BR BKN003 OVC005 M05/M06 Q1015
  • 221200Z 14005KT 110V170 1600 OVC003 M05/M05 Q1015

TAF TAF EPBY
Valide du 22 à 12h jusqu'au 23 à 12h UTC


221130Z 2212/2312 16006KT 1800 BR BKN003
BECMG 2213/2215 3500 BR BKN007
TEMPO 2218/2308 BKN003
BECMG 2300/2303 10010KT 6000
BECMG 2309/2312 BKN015
Pas de NOTAMs connus pour ce terrain.



MET'MAP, la Météo Aéronautique d'un coup d'oeil ! - Copyright ORBIFLY Décembre 2007 - Disclaimer

ORBIFLY MET'MAP TEAM :

Programmation & Développement : Alexandra Zaïnal
Conception & Développement : Baudouin d'Aumeries
Co-Programmation & Développement : Marc-Olivier Méhu
Soutien technique & logistique : Manuel Goepfert

Contact : metmap@orbifly.com




SOURCES & CREDITS :

   NOAA